createdAt,value
2019-03-24T00:04:06.104Z,17.93
2019-03-24T00:09:00.111Z,17.43
2019-03-24T00:13:54.199Z,16.27
2019-03-24T00:18:48.252Z,15.90
2019-03-24T00:23:42.273Z,14.23
2019-03-24T00:28:36.241Z,13.63
2019-03-24T00:33:30.200Z,12.97
2019-03-24T00:38:24.192Z,13.10
2019-03-24T00:43:18.174Z,12.33
2019-03-24T00:48:12.164Z,13.20
2019-03-24T00:53:06.132Z,12.30
2019-03-24T00:58:00.330Z,11.87
2019-03-24T01:02:54.301Z,11.60
2019-03-24T01:07:48.505Z,11.83
2019-03-24T01:12:42.485Z,11.50
2019-03-24T01:17:36.852Z,11.07
2019-03-24T01:22:30.918Z,10.70
2019-03-24T01:27:24.888Z,11.07
2019-03-24T01:32:18.959Z,9.87
2019-03-24T01:37:12.924Z,11.00
2019-03-24T01:42:07.037Z,10.60
2019-03-24T01:47:01.128Z,10.27
2019-03-24T01:51:55.103Z,9.83
2019-03-24T01:56:49.072Z,10.87
2019-03-24T02:01:43.076Z,10.23
2019-03-24T02:06:38.670Z,10.20
2019-03-24T02:11:32.726Z,10.73
2019-03-24T02:16:26.677Z,11.27
2019-03-24T02:21:21.042Z,10.80
2019-03-24T02:26:15.107Z,10.63
2019-03-24T02:31:09.081Z,12.07
2019-03-24T02:36:03.155Z,11.67
2019-03-24T02:40:57.128Z,11.67
2019-03-24T02:45:51.101Z,11.97
2019-03-24T02:50:45.196Z,13.00
2019-03-24T02:55:39.144Z,13.00
2019-03-24T03:00:33.122Z,11.83
2019-03-24T03:05:27.120Z,12.97
2019-03-24T03:10:21.198Z,13.23
2019-03-24T03:15:15.274Z,12.93
2019-03-24T03:20:10.747Z,13.77
2019-03-24T03:25:08.001Z,13.83
2019-03-24T03:30:04.356Z,13.07
2019-03-24T03:34:58.513Z,13.93
2019-03-24T03:39:57.305Z,14.03
2019-03-24T03:44:48.528Z,16.00
2019-03-24T03:49:42.508Z,14.90
2019-03-24T03:54:36.461Z,16.30
2019-03-24T03:59:30.443Z,16.57
2019-03-24T04:04:24.417Z,15.83
2019-03-24T04:09:18.398Z,16.70
2019-03-24T04:14:12.475Z,15.73
2019-03-24T04:19:06.394Z,16.27
2019-03-24T04:24:00.359Z,15.67
2019-03-24T04:28:54.446Z,17.00
2019-03-24T04:33:48.433Z,16.77
2019-03-24T04:38:42.390Z,16.80
2019-03-24T04:43:36.362Z,17.80
2019-03-24T04:48:30.345Z,16.43
2019-03-24T04:53:24.310Z,16.63
2019-03-24T04:58:18.280Z,16.53
2019-03-24T05:03:12.343Z,16.70
2019-03-24T05:08:08.915Z,17.60
2019-03-24T05:13:02.911Z,16.80
2019-03-24T05:17:56.976Z,20.53
2019-03-24T05:22:50.942Z,19.40
2019-03-24T05:27:45.191Z,19.43
2019-03-24T05:32:39.162Z,18.57
2019-03-24T05:37:33.247Z,18.47
2019-03-24T05:42:27.181Z,20.00
2019-03-24T05:47:21.213Z,19.53
2019-03-24T05:52:15.172Z,19.63
2019-03-24T05:57:09.164Z,20.37
2019-03-24T06:02:03.212Z,19.97
2019-03-24T06:06:57.188Z,19.93
2019-03-24T06:11:51.151Z,19.10
2019-03-24T06:16:45.117Z,17.90
2019-03-24T06:21:39.073Z,18.43
2019-03-24T06:26:33.027Z,19.33
2019-03-24T06:31:26.997Z,17.83
2019-03-24T06:36:20.952Z,15.90
2019-03-24T06:41:14.902Z,14.73
2019-03-24T06:46:08.908Z,15.77
2019-03-24T06:51:02.983Z,12.53
2019-03-24T06:55:56.950Z,12.30
2019-03-24T07:00:51.041Z,11.13
2019-03-24T07:05:45.008Z,10.30
2019-03-24T07:10:39.173Z,10.43
2019-03-24T07:15:33.181Z,9.47
2019-03-24T07:20:27.270Z,9.07
2019-03-24T07:25:21.344Z,9.70
2019-03-24T07:30:15.600Z,9.07
2019-03-24T07:35:09.576Z,8.40
2019-03-24T07:40:05.840Z,9.17
2019-03-24T07:44:59.830Z,7.73
2019-03-24T07:49:53.947Z,9.33
2019-03-24T07:54:47.915Z,9.20
2019-03-24T07:59:41.933Z,9.40
2019-03-24T08:04:35.892Z,7.53
2019-03-24T08:09:29.876Z,7.77
2019-03-24T08:14:24.018Z,8.60
2019-03-24T08:19:17.976Z,9.67
2019-03-24T08:24:11.959Z,8.43
2019-03-24T08:29:05.920Z,9.13
2019-03-24T08:33:59.891Z,10.33
2019-03-24T08:38:53.982Z,10.45
2019-03-24T08:43:47.957Z,8.80
2019-03-24T08:48:42.007Z,9.58
2019-03-24T08:53:36.009Z,8.70
2019-03-24T08:58:29.969Z,9.35
2019-03-24T09:03:23.985Z,9.30
2019-03-24T09:08:18.080Z,9.75
2019-03-24T09:13:12.168Z,10.00
2019-03-24T09:18:06.156Z,9.38
2019-03-24T09:23:00.256Z,10.20
2019-03-24T09:27:54.345Z,9.23
2019-03-24T09:32:48.331Z,9.03
2019-03-24T09:37:42.299Z,8.65
2019-03-24T09:42:36.262Z,8.90
2019-03-24T09:47:30.277Z,8.63
2019-03-24T09:52:24.457Z,8.15
2019-03-24T09:57:18.458Z,8.50
2019-03-24T10:02:14.484Z,7.47
2019-03-24T10:07:08.460Z,6.60
2019-03-24T10:12:02.773Z,6.72
2019-03-24T10:16:56.858Z,7.62
2019-03-24T10:21:50.865Z,6.28
2019-03-24T10:26:44.983Z,6.00
2019-03-24T10:31:39.047Z,6.45
2019-03-24T10:36:33.335Z,6.03
2019-03-24T10:41:27.277Z,6.22
2019-03-24T10:46:21.394Z,5.97
2019-03-24T10:51:15.627Z,6.75
2019-03-24T10:56:09.625Z,6.80
2019-03-24T11:01:03.636Z,6.33
2019-03-24T11:05:57.741Z,6.50
2019-03-24T11:10:51.792Z,6.30
2019-03-24T11:15:45.985Z,5.53
2019-03-24T11:20:40.237Z,6.12
2019-03-24T11:25:34.317Z,6.10
2019-03-24T11:30:28.303Z,6.33
2019-03-24T11:35:22.390Z,5.92
2019-03-24T11:40:16.608Z,6.12
2019-03-24T11:45:11.221Z,5.90
2019-03-24T11:50:06.208Z,4.90
2019-03-24T11:55:00.417Z,4.78
2019-03-24T11:59:54.437Z,4.72
2019-03-24T12:04:48.438Z,4.80
2019-03-24T12:09:42.414Z,5.92
2019-03-24T12:14:36.409Z,6.00
2019-03-24T12:19:30.413Z,5.20
2019-03-24T12:24:24.388Z,4.72
2019-03-24T12:29:18.512Z,6.37
2019-03-24T12:34:12.502Z,7.20
2019-03-24T12:39:06.576Z,7.45
2019-03-24T12:44:00.568Z,7.15
2019-03-24T12:48:54.626Z,5.85
2019-03-24T12:53:48.740Z,5.58
2019-03-24T12:58:42.760Z,4.67
2019-03-24T13:03:36.771Z,5.40
2019-03-24T13:08:30.752Z,5.45
2019-03-24T13:13:24.879Z,5.03
2019-03-24T13:18:18.905Z,3.90
2019-03-24T13:23:13.123Z,3.12
2019-03-24T13:28:07.224Z,3.02
2019-03-24T13:33:01.404Z,2.60
2019-03-24T13:37:55.517Z,2.30
2019-03-24T13:42:49.498Z,2.25
2019-03-24T13:47:43.521Z,2.70
2019-03-24T13:52:37.534Z,2.70
2019-03-24T13:57:31.606Z,2.30
2019-03-24T14:02:25.705Z,2.75
2019-03-24T14:07:19.900Z,2.65
2019-03-24T14:12:13.892Z,2.60
2019-03-24T14:17:08.116Z,2.60
2019-03-24T14:22:02.344Z,2.72
2019-03-24T14:26:56.337Z,2.80
2019-03-24T14:31:50.403Z,2.27
2019-03-24T14:36:44.405Z,2.60
2019-03-24T14:41:38.600Z,2.27
2019-03-24T14:46:32.671Z,2.50
2019-03-24T14:51:26.744Z,2.50
2019-03-24T14:56:20.717Z,2.17
2019-03-24T15:01:14.690Z,2.15
2019-03-24T15:06:08.758Z,3.08
2019-03-24T15:11:02.882Z,2.20
2019-03-24T15:15:56.849Z,2.30
2019-03-24T15:20:50.968Z,2.90
2019-03-24T15:25:44.958Z,3.37
2019-03-24T15:30:39.076Z,3.40
2019-03-24T15:35:33.031Z,2.67
2019-03-24T15:40:27.135Z,1.82
2019-03-24T15:45:21.497Z,1.50
2019-03-24T15:50:15.586Z,2.40
2019-03-24T15:55:09.805Z,2.40
2019-03-24T16:00:06.077Z,1.82
2019-03-24T16:05:00.316Z,1.92
2019-03-24T16:09:54.397Z,1.90
2019-03-24T16:14:48.454Z,1.95
2019-03-24T16:19:42.440Z,2.05
2019-03-24T16:24:36.428Z,2.00
2019-03-24T16:29:30.482Z,2.05
2019-03-24T16:34:24.473Z,2.22
2019-03-24T16:39:18.435Z,2.25
2019-03-24T16:44:12.408Z,2.12
2019-03-24T16:49:06.454Z,2.08
2019-03-24T16:54:00.568Z,2.15
2019-03-24T16:58:54.671Z,2.27
2019-03-24T17:03:48.658Z,1.62
2019-03-24T17:08:42.635Z,1.85
2019-03-24T17:13:36.609Z,1.30
2019-03-24T17:18:30.819Z,1.67
2019-03-24T17:23:24.819Z,2.12
2019-03-24T17:28:18.854Z,1.72
2019-03-24T17:33:13.322Z,1.65
2019-03-24T17:38:07.446Z,2.05
2019-03-24T17:43:01.645Z,1.95
2019-03-24T17:47:57.828Z,2.00
2019-03-24T17:52:51.912Z,2.37
2019-03-24T17:57:46.054Z,2.62
2019-03-24T18:02:40.054Z,2.83
2019-03-24T18:07:34.091Z,2.63
2019-03-24T18:12:28.132Z,2.80
2019-03-24T18:17:22.159Z,2.50
2019-03-24T18:22:16.208Z,2.20
2019-03-24T18:27:10.257Z,2.50
2019-03-24T18:32:04.498Z,2.87
2019-03-24T18:36:58.494Z,3.33
2019-03-24T18:41:52.602Z,3.27
2019-03-24T18:46:46.615Z,3.70
2019-03-24T18:51:40.604Z,3.60
2019-03-24T18:56:34.698Z,2.93
2019-03-24T19:01:28.852Z,2.47
2019-03-24T19:06:23.071Z,2.40
2019-03-24T19:11:17.295Z,2.30
2019-03-24T19:16:11.311Z,2.60
2019-03-24T19:21:05.491Z,2.73
2019-03-24T19:25:59.553Z,2.93
2019-03-24T19:30:53.897Z,3.30
2019-03-24T19:35:48.073Z,3.47
2019-03-24T19:40:42.214Z,2.97
2019-03-24T19:45:36.201Z,2.77
2019-03-24T19:50:30.423Z,3.60
2019-03-24T19:55:24.482Z,2.70
2019-03-24T20:00:18.628Z,3.03
2019-03-24T20:05:12.662Z,3.00
2019-03-24T20:10:06.939Z,2.80
2019-03-24T20:15:01.186Z,2.80
2019-03-24T20:19:55.325Z,2.57
2019-03-24T20:24:49.456Z,2.67
2019-03-24T20:29:43.623Z,3.63
2019-03-24T20:34:37.786Z,3.10
2019-03-24T20:39:31.830Z,2.57
2019-03-24T20:44:25.924Z,2.83
2019-03-24T20:49:20.042Z,3.03
2019-03-24T20:54:14.036Z,3.30
2019-03-24T20:59:08.122Z,2.90
2019-03-24T21:04:02.231Z,3.30
2019-03-24T21:08:56.223Z,2.93
2019-03-24T21:13:50.249Z,2.97
2019-03-24T21:18:44.265Z,3.27
2019-03-24T21:23:38.265Z,3.60
2019-03-24T21:28:32.244Z,3.17
2019-03-24T21:33:26.337Z,3.50
2019-03-24T21:38:20.435Z,3.40
2019-03-24T21:43:14.522Z,3.87
2019-03-24T21:48:08.529Z,3.17
2019-03-24T21:53:02.945Z,2.90
2019-03-24T21:57:57.987Z,3.40
2019-03-24T22:02:52.208Z,3.23
2019-03-24T22:07:46.206Z,3.13
2019-03-24T22:12:40.193Z,3.60
2019-03-24T22:17:34.180Z,3.90
2019-03-24T22:22:28.425Z,3.53
2019-03-24T22:27:22.405Z,3.97
2019-03-24T22:32:16.377Z,3.30
2019-03-24T22:37:15.787Z,3.30
2019-03-24T22:42:06.258Z,3.40
2019-03-24T22:47:00.256Z,3.50
2019-03-24T22:51:58.709Z,3.73
2019-03-24T22:56:50.167Z,3.37
2019-03-24T23:01:44.500Z,3.87
2019-03-24T23:06:38.597Z,4.00
2019-03-24T23:11:32.675Z,4.13
2019-03-24T23:16:26.659Z,4.17
2019-03-24T23:21:20.647Z,3.70
2019-03-24T23:26:14.731Z,4.23
2019-03-24T23:31:08.735Z,4.00
2019-03-24T23:36:02.803Z,4.37
2019-03-24T23:40:56.780Z,4.60
2019-03-24T23:45:50.744Z,4.30
2019-03-24T23:50:44.848Z,4.20
2019-03-24T23:55:38.828Z,4.37
